Sutton, Canada
Current Conditions -  °F | °C
As of 8:35 AM on Friday 24 Oct 2014 (Local Time) from KEFK Reporting Station
Haze Haze  
Wind Chill: 35°   Ceiling: 700
Heat Index: 41°   Visibility: 3mi
Dew Point: 40°   Wind: 10mph
Humidity: 96%   Direction: 350°N
Pressure: 29.82"   Gusts: NA
Location:  45.11°N, 72.62°W
Report Text: KEFK 241235Z AUTO 35009KT 3SM BR OVC007 05/05 A2982 RMK AO2 T00520046
Loading
Personal Weather Stations






























Interactive Weather Map
Tropical Storm Tracking
New forecast layout! Learn more

10-Day Weather Forecast

Advertisements
Track Severe Weather on mobile